createdAt,value
2023-03-06T00:00:46.420Z,-2.93
2023-03-06T00:01:46.406Z,-2.71
2023-03-06T00:02:46.403Z,-2.89
2023-03-06T00:03:46.446Z,-2.93
2023-03-06T00:04:46.403Z,-2.84
2023-03-06T00:05:46.492Z,-2.89
2023-03-06T00:06:46.356Z,-3.04
2023-03-06T00:07:46.343Z,-3.05
2023-03-06T00:08:46.355Z,-3.21
2023-03-06T00:09:46.324Z,-3.12
2023-03-06T00:10:46.317Z,-3.16
2023-03-06T00:11:46.349Z,-3.18
2023-03-06T00:12:46.328Z,-3.15
2023-03-06T00:13:46.279Z,-3.10
2023-03-06T00:14:46.297Z,-3.10
2023-03-06T00:15:46.270Z,-3.16
2023-03-06T00:16:46.257Z,-3.22
2023-03-06T00:17:46.248Z,-3.21
2023-03-06T00:18:46.232Z,-3.26
2023-03-06T00:19:46.216Z,-3.08
2023-03-06T00:20:46.249Z,-3.23
2023-03-06T00:21:46.193Z,-3.34
2023-03-06T00:22:46.198Z,-3.39
2023-03-06T00:23:46.177Z,-3.36
2023-03-06T00:24:46.164Z,-3.23
2023-03-06T00:25:46.169Z,-3.26
2023-03-06T00:26:46.145Z,-3.22
2023-03-06T00:27:46.141Z,-3.12
2023-03-06T00:28:46.127Z,-3.22
2023-03-06T00:29:46.108Z,-3.37
2023-03-06T00:30:46.202Z,-3.46
2023-03-06T00:31:46.120Z,-3.47
2023-03-06T00:32:46.081Z,-3.39
2023-03-06T00:33:46.065Z,-3.40
2023-03-06T00:34:46.066Z,-3.49
2023-03-06T00:35:46.123Z,-3.47
2023-03-06T00:36:46.055Z,-3.26
2023-03-06T00:37:46.040Z,-3.43
2023-03-06T00:38:46.014Z,-3.28
2023-03-06T00:39:46.010Z,-3.33
2023-03-06T00:40:46.006Z,-3.34
2023-03-06T00:41:47.085Z,-3.25
2023-03-06T00:42:45.972Z,-3.04
2023-03-06T00:43:45.956Z,-3.16
2023-03-06T00:44:45.951Z,-3.10
2023-03-06T00:45:46.010Z,-3.10
2023-03-06T00:46:45.940Z,-3.01
2023-03-06T00:47:45.913Z,-3.01
2023-03-06T00:48:45.907Z,-3.08
2023-03-06T00:49:45.894Z,-3.04
2023-03-06T00:50:45.884Z,-3.13
2023-03-06T00:51:45.887Z,-3.01
2023-03-06T00:52:45.890Z,-3.12
2023-03-06T00:53:45.849Z,-3.07
2023-03-06T00:54:45.845Z,-3.10
2023-03-06T00:55:45.827Z,-3.21
2023-03-06T00:56:45.822Z,-3.08
2023-03-06T00:57:45.825Z,-3.18
2023-03-06T00:58:45.808Z,-3.16
2023-03-06T00:59:45.790Z,-3.25
2023-03-06T01:00:45.797Z,-3.19
2023-03-06T01:01:45.785Z,-3.25
2023-03-06T01:02:45.774Z,-3.08
2023-03-06T01:03:45.753Z,-3.05
2023-03-06T01:04:45.738Z,-3.12
2023-03-06T01:05:45.742Z,-3.22
2023-03-06T01:06:45.713Z,-3.18
2023-03-06T01:07:45.712Z,-3.01
2023-03-06T01:08:45.730Z,-2.90
2023-03-06T01:09:45.675Z,-2.95
2023-03-06T01:10:45.670Z,-3.07
2023-03-06T01:11:45.654Z,-3.07
2023-03-06T01:12:45.644Z,-3.13
2023-03-06T01:13:45.647Z,-2.98
2023-03-06T01:14:45.633Z,-3.00
2023-03-06T01:15:45.620Z,-2.94
2023-03-06T01:16:45.676Z,-3.12
2023-03-06T01:17:45.588Z,-2.97
2023-03-06T01:18:45.582Z,-3.07
2023-03-06T01:19:45.599Z,-3.05
2023-03-06T01:20:45.586Z,-3.13
2023-03-06T01:21:45.554Z,-3.15
2023-03-06T01:22:45.549Z,-2.89
2023-03-06T01:23:45.524Z,-2.95
2023-03-06T01:24:45.540Z,-2.98
2023-03-06T01:25:45.519Z,-2.93
2023-03-06T01:26:45.508Z,-2.90
2023-03-06T01:27:45.480Z,-3.00
2023-03-06T01:28:45.474Z,-3.15
2023-03-06T01:29:45.461Z,-3.13
2023-03-06T01:30:45.459Z,-3.28
2023-03-06T01:31:45.524Z,-3.31
2023-03-06T01:32:45.432Z,-3.30
2023-03-06T01:33:45.421Z,-3.33
2023-03-06T01:34:45.419Z,-3.10
2023-03-06T01:35:45.422Z,-3.15
2023-03-06T01:36:45.389Z,-3.18
2023-03-06T01:37:45.388Z,-3.10
2023-03-06T01:38:45.368Z,-3.15
2023-03-06T01:39:45.365Z,-3.10
2023-03-06T01:40:45.365Z,-3.07
2023-03-06T01:41:45.360Z,-3.00
2023-03-06T01:42:46.813Z,-3.18
2023-03-06T01:43:45.339Z,-3.22
2023-03-06T01:44:45.307Z,-3.18
2023-03-06T01:45:45.331Z,-3.25
2023-03-06T01:46:45.314Z,-3.15
2023-03-06T01:47:45.271Z,-3.18
2023-03-06T01:48:45.270Z,-3.25
2023-03-06T01:49:45.277Z,-3.12
2023-03-06T01:50:45.246Z,-3.26
2023-03-06T01:51:45.230Z,-3.36
2023-03-06T01:52:45.222Z,-3.21
2023-03-06T01:53:45.207Z,-3.25
2023-03-06T01:54:45.210Z,-3.33
2023-03-06T01:55:45.197Z,-3.26
2023-03-06T01:56:45.214Z,-3.31
2023-03-06T01:57:45.197Z,-3.25
2023-03-06T01:58:45.167Z,-3.30
2023-03-06T01:59:45.145Z,-3.34
2023-03-06T02:00:45.218Z,-3.08
2023-03-06T02:01:45.135Z,-3.02
2023-03-06T02:02:45.147Z,-3.05
2023-03-06T02:03:45.116Z,-3.02
2023-03-06T02:04:45.098Z,-2.80
2023-03-06T02:05:45.081Z,-2.84
2023-03-06T02:06:45.083Z,-2.77
2023-03-06T02:07:45.073Z,-2.86
2023-03-06T02:08:45.054Z,-3.00
2023-03-06T02:09:45.053Z,-2.72
2023-03-06T02:10:45.034Z,-2.93
2023-03-06T02:11:45.140Z,-2.77
2023-03-06T02:12:45.034Z,-2.72
2023-03-06T02:13:45.008Z,-2.93
2023-03-06T02:14:44.997Z,-3.07
2023-03-06T02:15:44.995Z,-3.10
2023-03-06T02:16:45.007Z,-3.19
2023-03-06T02:17:44.962Z,-3.28
2023-03-06T02:18:44.950Z,-3.30
2023-03-06T02:19:44.956Z,-3.41
2023-03-06T02:20:44.929Z,-3.47
2023-03-06T02:21:44.926Z,-3.55
2023-03-06T02:22:44.907Z,-3.41
2023-03-06T02:23:44.892Z,-3.58
2023-03-06T02:24:44.884Z,-3.51
2023-03-06T02:25:44.886Z,-3.37
2023-03-06T02:26:44.874Z,-3.47
2023-03-06T02:27:44.858Z,-3.37
2023-03-06T02:28:44.879Z,-3.37
2023-03-06T02:29:44.841Z,-3.36
2023-03-06T02:30:44.869Z,-3.22
2023-03-06T02:31:44.824Z,-3.33
2023-03-06T02:32:44.825Z,-3.36
2023-03-06T02:33:44.790Z,-3.31
2023-03-06T02:34:44.806Z,-3.18
2023-03-06T02:35:44.774Z,-3.23
2023-03-06T02:36:44.769Z,-3.31
2023-03-06T02:37:44.759Z,-3.40
2023-03-06T02:38:44.740Z,-3.34
2023-03-06T02:39:44.730Z,-3.36
2023-03-06T02:40:44.729Z,-3.28
2023-03-06T02:41:44.702Z,-3.33
2023-03-06T02:42:44.707Z,-3.28
2023-03-06T02:43:44.696Z,-3.52
2023-03-06T02:44:44.711Z,-3.54
2023-03-06T02:45:44.713Z,-3.41
2023-03-06T02:46:44.660Z,-3.43
2023-03-06T02:47:44.635Z,-3.28
2023-03-06T02:48:44.626Z,-3.34
2023-03-06T02:49:44.627Z,-3.37
2023-03-06T02:50:44.607Z,-3.40
2023-03-06T02:51:44.603Z,-3.34
2023-03-06T02:52:44.584Z,-3.39
2023-03-06T02:53:44.595Z,-3.33
2023-03-06T02:54:44.565Z,-3.16
2023-03-06T02:55:44.568Z,-3.37
2023-03-06T02:56:44.556Z,-3.28
2023-03-06T02:57:44.580Z,-3.22
2023-03-06T02:58:44.514Z,-3.22
2023-03-06T02:59:44.508Z,-3.34
2023-03-06T03:00:44.543Z,-3.44
2023-03-06T03:01:44.559Z,-3.49
2023-03-06T03:02:44.470Z,-3.58
2023-03-06T03:03:44.463Z,-3.57
2023-03-06T03:04:44.495Z,-3.69
2023-03-06T03:05:44.460Z,-3.69
2023-03-06T03:06:44.428Z,-3.57
2023-03-06T03:07:44.449Z,-3.57
2023-03-06T03:08:44.406Z,-3.62
2023-03-06T03:09:44.408Z,-3.55
2023-03-06T03:10:44.387Z,-3.77
2023-03-06T03:11:44.377Z,-3.70
2023-03-06T03:12:44.385Z,-3.52
2023-03-06T03:13:44.366Z,-3.58
2023-03-06T03:14:44.350Z,-3.64
2023-03-06T03:15:44.433Z,-3.64
2023-03-06T03:16:44.342Z,-3.69
2023-03-06T03:17:44.327Z,-3.64
2023-03-06T03:18:44.326Z,-3.65
2023-03-06T03:19:44.295Z,-3.76
2023-03-06T03:20:44.279Z,-3.61
2023-03-06T03:21:44.284Z,-3.68
2023-03-06T03:22:44.259Z,-3.57
2023-03-06T03:23:44.257Z,-3.68
2023-03-06T03:24:44.318Z,-3.47
2023-03-06T03:25:44.243Z,-3.57
2023-03-06T03:26:44.217Z,-3.47
2023-03-06T03:27:44.222Z,-3.58
2023-03-06T03:28:44.202Z,-3.57
2023-03-06T03:29:44.204Z,-3.44
2023-03-06T03:30:44.179Z,-3.30
2023-03-06T03:31:44.170Z,-3.44
2023-03-06T03:32:44.185Z,-3.39
2023-03-06T03:33:44.171Z,-3.34
2023-03-06T03:34:44.133Z,-3.52
2023-03-06T03:35:44.174Z,-3.41
2023-03-06T03:36:44.118Z,-3.49
2023-03-06T03:37:44.109Z,-3.25
2023-03-06T03:38:44.096Z,-3.13
2023-03-06T03:39:44.129Z,-3.05
2023-03-06T03:40:44.073Z,-2.89
2023-03-06T03:41:44.067Z,-3.04
2023-03-06T03:42:44.059Z,-2.94
2023-03-06T03:43:44.042Z,-2.93
2023-03-06T03:44:44.064Z,-2.77
2023-03-06T03:45:44.047Z,-2.86
2023-03-06T03:46:44.130Z,-2.98
2023-03-06T03:47:43.999Z,-2.80
2023-03-06T03:48:44.008Z,-2.76
2023-03-06T03:49:43.997Z,-2.64
2023-03-06T03:50:43.966Z,-2.79
2023-03-06T03:51:43.981Z,-2.76
2023-03-06T03:52:43.945Z,-2.72
2023-03-06T03:53:43.942Z,-2.56
2023-03-06T03:54:43.926Z,-2.48
2023-03-06T03:55:43.914Z,-2.56
2023-03-06T03:56:43.899Z,-2.69
2023-03-06T03:57:43.916Z,-2.64
2023-03-06T03:58:43.876Z,-2.61
2023-03-06T03:59:43.872Z,-2.68
2023-03-06T04:00:43.856Z,-2.76
2023-03-06T04:01:43.871Z,-2.72
2023-03-06T04:02:43.851Z,-2.79
2023-03-06T04:03:43.848Z,-2.90
2023-03-06T04:04:43.882Z,-2.72
2023-03-06T04:05:43.804Z,-2.72
2023-03-06T04:06:43.790Z,-2.66
2023-03-06T04:07:43.795Z,-2.65
2023-03-06T04:08:43.770Z,-2.61
2023-03-06T04:09:43.774Z,-2.59
2023-03-06T04:10:43.784Z,-2.50
2023-03-06T04:11:43.743Z,-2.46
2023-03-06T04:12:43.736Z,-2.43
2023-03-06T04:13:43.774Z,-2.53
2023-03-06T04:14:43.704Z,-2.65
2023-03-06T04:15:43.700Z,-2.68
2023-03-06T04:16:43.702Z,-2.80
2023-03-06T04:17:43.689Z,-2.74
2023-03-06T04:18:43.689Z,-2.79
2023-03-06T04:19:43.653Z,-2.59
2023-03-06T04:20:43.685Z,-2.74
2023-03-06T04:21:43.681Z,-2.64
2023-03-06T04:22:43.640Z,-2.61
2023-03-06T04:23:43.613Z,-2.46
2023-03-06T04:24:43.603Z,-2.55
2023-03-06T04:25:43.589Z,-2.44
2023-03-06T04:26:43.576Z,-2.46
2023-03-06T04:27:43.584Z,-2.47
2023-03-06T04:28:43.564Z,-2.35
2023-03-06T04:29:43.549Z,-2.56
2023-03-06T04:30:43.545Z,-2.59
2023-03-06T04:31:43.588Z,-2.62
2023-03-06T04:32:43.601Z,-2.62
2023-03-06T04:33:43.508Z,-2.53
2023-03-06T04:34:43.508Z,-2.53
2023-03-06T04:35:43.571Z,-2.47
2023-03-06T04:36:43.499Z,-2.64
2023-03-06T04:37:43.469Z,-2.62
2023-03-06T04:38:43.485Z,-2.74
2023-03-06T04:39:43.442Z,-2.86
2023-03-06T04:40:44.941Z,-2.93
2023-03-06T04:41:43.433Z,-2.95
2023-03-06T04:42:43.407Z,-2.77
2023-03-06T04:43:43.402Z,-2.74
2023-03-06T04:44:43.397Z,-2.79
2023-03-06T04:45:43.423Z,-2.77
2023-03-06T04:46:43.394Z,-2.87
2023-03-06T04:47:43.356Z,-2.76
2023-03-06T04:48:43.343Z,-2.69
2023-03-06T04:49:43.354Z,-2.71
2023-03-06T04:50:43.332Z,-2.64
2023-03-06T04:51:43.315Z,-2.51
2023-03-06T04:52:43.325Z,-2.62
2023-03-06T04:53:43.295Z,-2.43
2023-03-06T04:54:43.282Z,-2.48
2023-03-06T04:55:43.291Z,-2.35
2023-03-06T04:56:43.287Z,-2.22
2023-03-06T04:57:43.258Z,-2.29
2023-03-06T04:58:43.254Z,-2.33
2023-03-06T04:59:43.231Z,-2.32
2023-03-06T05:00:43.247Z,-2.44
2023-03-06T05:01:43.220Z,-2.32
2023-03-06T05:02:43.200Z,-2.61
2023-03-06T05:03:43.195Z,-2.62
2023-03-06T05:04:43.189Z,-2.48
2023-03-06T05:05:43.165Z,-2.77
2023-03-06T05:06:43.151Z,-2.69
2023-03-06T05:07:43.140Z,-2.76
2023-03-06T05:08:43.147Z,-2.72
2023-03-06T05:09:43.147Z,-2.82
2023-03-06T05:10:43.116Z,-2.62
2023-03-06T05:11:43.101Z,-2.98
2023-03-06T05:12:43.093Z,-2.83
2023-03-06T05:13:43.090Z,-2.86
2023-03-06T05:14:43.089Z,-2.87
2023-03-06T05:15:43.059Z,-2.86
2023-03-06T05:16:43.174Z,-2.84
2023-03-06T05:17:43.029Z,-2.83
2023-03-06T05:18:43.019Z,-3.02
2023-03-06T05:19:43.009Z,-2.74
2023-03-06T05:20:43.021Z,-2.80
2023-03-06T05:21:43.001Z,-2.86
2023-03-06T05:22:42.977Z,-2.90
2023-03-06T05:23:42.967Z,-2.84
2023-03-06T05:24:42.980Z,-2.86
2023-03-06T05:25:42.949Z,-2.84
2023-03-06T05:26:42.941Z,-2.84
2023-03-06T05:27:42.936Z,-2.95
2023-03-06T05:28:42.919Z,-2.90
2023-03-06T05:29:42.900Z,-3.00
2023-03-06T05:30:42.889Z,-2.77
2023-03-06T05:31:42.939Z,-2.89
2023-03-06T05:32:42.977Z,-2.79
2023-03-06T05:33:42.875Z,-2.66
2023-03-06T05:34:42.843Z,-2.76
2023-03-06T05:35:42.862Z,-2.71
2023-03-06T05:36:42.824Z,-2.65
2023-03-06T05:37:42.832Z,-2.51
2023-03-06T05:38:42.813Z,-2.43
2023-03-06T05:39:42.809Z,-2.26
2023-03-06T05:40:42.821Z,-2.35
2023-03-06T05:41:42.779Z,-2.25
2023-03-06T05:42:42.768Z,-2.22
2023-03-06T05:43:42.762Z,-2.35
2023-03-06T05:44:42.755Z,-2.33
2023-03-06T05:45:42.779Z,-2.28
2023-03-06T05:46:42.724Z,-2.26
2023-03-06T05:47:42.723Z,-2.33
2023-03-06T05:48:42.711Z,-2.28
2023-03-06T05:49:42.705Z,-2.41
2023-03-06T05:50:42.679Z,-2.32
2023-03-06T05:51:42.674Z,-2.48
2023-03-06T05:52:42.660Z,-2.55
2023-03-06T05:53:42.652Z,-2.41
2023-03-06T05:54:42.640Z,-2.41
2023-03-06T05:55:42.639Z,-2.46
2023-03-06T05:56:42.975Z,-2.55
2023-03-06T05:57:42.615Z,-2.47
2023-03-06T05:58:42.602Z,-2.38
2023-03-06T05:59:43.294Z,-2.50
2023-03-06T06:00:42.574Z,-2.47
2023-03-06T06:01:42.569Z,-2.28
2023-03-06T06:02:42.581Z,-2.38
2023-03-06T06:03:42.559Z,-2.41
2023-03-06T06:04:42.537Z,-2.24
2023-03-06T06:05:42.513Z,-2.33
2023-03-06T06:06:42.505Z,-2.35
2023-03-06T06:07:42.497Z,-2.44
2023-03-06T06:08:42.494Z,-2.44
2023-03-06T06:09:42.478Z,-2.44
2023-03-06T06:10:42.482Z,-2.41
2023-03-06T06:11:42.448Z,-2.41
2023-03-06T06:12:42.491Z,-2.47
2023-03-06T06:13:42.433Z,-2.44
2023-03-06T06:14:42.419Z,-2.38
2023-03-06T06:15:42.423Z,-2.18
2023-03-06T06:16:42.425Z,-2.29
2023-03-06T06:17:42.383Z,-2.18
2023-03-06T06:18:42.398Z,-2.16
2023-03-06T06:19:42.371Z,-2.21
2023-03-06T06:20:42.354Z,-2.13
2023-03-06T06:21:42.344Z,-2.11
2023-03-06T06:22:42.360Z,-2.18
2023-03-06T06:23:42.333Z,-2.07
2023-03-06T06:24:42.309Z,-2.06
2023-03-06T06:25:42.305Z,-1.93
2023-03-06T06:26:42.291Z,-2.01
2023-03-06T06:27:42.275Z,-2.07
2023-03-06T06:28:42.301Z,-2.08
2023-03-06T06:29:42.264Z,-1.89
2023-03-06T06:30:42.259Z,-1.85
2023-03-06T06:31:42.235Z,-1.90
2023-03-06T06:32:42.285Z,-1.82
2023-03-06T06:33:42.227Z,-1.82
2023-03-06T06:34:42.202Z,-1.85
2023-03-06T06:35:42.226Z,-1.86
2023-03-06T06:36:42.181Z,-1.77
2023-03-06T06:37:42.170Z,-1.78
2023-03-06T06:38:42.180Z,-1.83
2023-03-06T06:39:42.146Z,-1.75
2023-03-06T06:40:42.144Z,-1.71
2023-03-06T06:41:59.357Z,-1.86
2023-03-06T06:42:43.117Z,-1.95
2023-03-06T06:43:42.106Z,-1.83
2023-03-06T06:44:42.185Z,-1.82
2023-03-06T06:45:42.082Z,-1.80
2023-03-06T06:47:43.130Z,-1.82
2023-03-06T06:48:42.057Z,-2.01
2023-03-06T06:49:42.041Z,-1.88
2023-03-06T06:50:42.031Z,-1.74
2023-03-06T06:51:42.031Z,-1.93
2023-03-06T06:52:42.079Z,-1.82
2023-03-06T06:53:42.001Z,-1.82
2023-03-06T06:54:41.992Z,-1.71
2023-03-06T06:55:41.979Z,-1.78
2023-03-06T06:56:41.972Z,-1.86
2023-03-06T06:57:41.958Z,-1.71
2023-03-06T06:58:41.968Z,-1.72
2023-03-06T06:59:41.941Z,-1.75
2023-03-06T07:00:41.950Z,-1.67
2023-03-06T07:01:41.964Z,-1.65
2023-03-06T07:02:41.914Z,-1.50
2023-03-06T07:03:41.910Z,-1.54
2023-03-06T07:04:52.775Z,-1.47
2023-03-06T07:05:42.879Z,-1.53
2023-03-06T07:06:41.870Z,-1.62
2023-03-06T07:07:41.854Z,-1.41
2023-03-06T07:08:41.843Z,-1.41
2023-03-06T07:09:41.846Z,-1.38
2023-03-06T07:10:41.835Z,-1.38
2023-03-06T07:11:41.824Z,-1.26
2023-03-06T07:12:41.802Z,-1.15
2023-03-06T07:13:41.796Z,-1.31
2023-03-06T07:14:41.790Z,-1.26
2023-03-06T07:15:41.819Z,-1.20
2023-03-06T07:16:41.776Z,-1.31
2023-03-06T07:17:41.762Z,-1.20
2023-03-06T07:18:41.738Z,-1.25
2023-03-06T07:19:41.764Z,-1.15
2023-03-06T07:20:41.740Z,-1.10
2023-03-06T07:21:41.713Z,-1.14
2023-03-06T07:22:50.757Z,-1.03
2023-03-06T07:23:42.687Z,-0.93
2023-03-06T07:24:41.686Z,-0.97
2023-03-06T07:25:41.667Z,-0.95
2023-03-06T07:26:41.653Z,-0.90
2023-03-06T07:27:41.710Z,-1.00
2023-03-06T07:28:51.865Z,-0.96
2023-03-06T07:29:42.626Z,-0.95
2023-03-06T07:30:41.633Z,-0.93
2023-03-06T07:31:41.605Z,-0.90
2023-03-06T07:32:41.657Z,-0.92
2023-03-06T07:33:41.624Z,-0.90
2023-03-06T07:34:41.584Z,-0.93
2023-03-06T07:35:41.625Z,-0.80
2023-03-06T07:36:41.550Z,-0.80
2023-03-06T07:37:41.549Z,-0.86
2023-03-06T07:38:41.528Z,-0.81
2023-03-06T07:39:41.592Z,-0.78
2023-03-06T07:40:41.522Z,-0.92
2023-03-06T07:41:41.501Z,-0.92
2023-03-06T07:42:41.486Z,-0.77
2023-03-06T07:43:41.477Z,-0.83
2023-03-06T07:44:41.471Z,-0.71
2023-03-06T07:45:41.505Z,-0.65
2023-03-06T07:46:41.614Z,-0.67
2023-03-06T07:47:41.437Z,-0.63
2023-03-06T07:48:41.439Z,-0.55
2023-03-06T07:49:41.426Z,-0.62
2023-03-06T07:50:41.412Z,-0.62
2023-03-06T07:51:41.456Z,-0.67
2023-03-06T07:52:41.403Z,-0.62
2023-03-06T07:53:41.379Z,-0.53
2023-03-06T07:54:41.356Z,-0.50
2023-03-06T07:55:41.356Z,-0.55
2023-03-06T07:56:41.341Z,-0.55
2023-03-06T07:57:41.365Z,-0.45
2023-03-06T07:58:41.323Z,-0.45
2023-03-06T07:59:41.303Z,-0.34
2023-03-06T08:00:41.306Z,-0.65
2023-03-06T08:01:41.300Z,-0.41
2023-03-06T08:02:41.292Z,-0.39
2023-03-06T08:03:41.342Z,-0.42
2023-03-06T08:04:41.291Z,-0.38
2023-03-06T08:05:41.240Z,-0.35
2023-03-06T08:06:41.226Z,-0.39
2023-03-06T08:07:41.228Z,-0.42
2023-03-06T08:08:41.206Z,-0.30
2023-03-06T08:09:41.234Z,-0.30
2023-03-06T08:10:41.178Z,-0.27
2023-03-06T08:11:41.175Z,-0.30
2023-03-06T08:12:41.160Z,-0.06
2023-03-06T08:13:41.169Z,-0.21
2023-03-06T08:14:41.132Z,-0.14
2023-03-06T08:15:41.208Z,-0.14
2023-03-06T08:16:41.170Z,-0.06
2023-03-06T08:17:41.108Z,0.02
2023-03-06T08:18:41.105Z,-0.02
2023-03-06T08:19:41.094Z,-0.05
2023-03-06T08:20:41.085Z,0.04
2023-03-06T08:21:41.069Z,0.10
2023-03-06T08:22:41.120Z,0.12
2023-03-06T08:23:41.049Z,0.20
2023-03-06T08:24:41.025Z,0.19
2023-03-06T08:25:41.035Z,0.22
2023-03-06T08:26:41.005Z,0.31
2023-03-06T08:27:40.994Z,0.25
2023-03-06T08:28:40.976Z,0.48
2023-03-06T08:29:40.967Z,0.43
2023-03-06T08:30:40.953Z,0.41
2023-03-06T08:31:41.018Z,0.41
2023-03-06T08:32:41.020Z,0.33
2023-03-06T08:33:40.973Z,0.45
2023-03-06T08:34:40.913Z,0.49
2023-03-06T08:35:40.930Z,0.41
2023-03-06T08:36:40.963Z,0.38
2023-03-06T08:37:40.986Z,0.51
2023-03-06T08:38:40.872Z,0.53
2023-03-06T08:39:40.858Z,0.52
2023-03-06T08:40:40.842Z,0.63
2023-03-06T08:41:40.878Z,0.74
2023-03-06T08:42:40.855Z,0.89
2023-03-06T08:43:40.813Z,0.88
2023-03-06T08:44:40.815Z,1.00
2023-03-06T08:45:40.903Z,1.25
2023-03-06T08:46:40.778Z,1.39
2023-03-06T08:47:40.801Z,1.61
2023-03-06T08:48:40.770Z,2.01
2023-03-06T08:49:40.753Z,2.22
2023-03-06T08:50:40.731Z,2.33
2023-03-06T08:51:40.730Z,2.50
2023-03-06T08:52:40.741Z,2.41
2023-03-06T08:53:43.518Z,2.45
2023-03-06T08:54:40.707Z,2.94
2023-03-06T08:55:40.683Z,3.37
2023-03-06T08:56:40.671Z,3.52
2023-03-06T08:57:40.679Z,3.75
2023-03-06T08:58:40.644Z,3.84
2023-03-06T08:59:40.673Z,3.64
2023-03-06T09:00:40.688Z,3.93
2023-03-06T09:01:40.703Z,3.92
2023-03-06T09:02:40.683Z,4.16
2023-03-06T09:03:40.594Z,3.90
2023-03-06T09:04:40.582Z,3.53
2023-03-06T09:05:40.607Z,3.71
2023-03-06T09:06:40.575Z,3.28
2023-03-06T09:07:40.567Z,3.05
2023-03-06T09:08:40.605Z,2.98
2023-03-06T09:09:40.527Z,2.86
2023-03-06T09:10:40.549Z,2.77
2023-03-06T09:11:40.531Z,2.43
2023-03-06T09:12:49.736Z,2.26
2023-03-06T09:13:41.484Z,2.30
2023-03-06T09:14:40.471Z,2.33
2023-03-06T09:15:40.466Z,2.33
2023-03-06T09:16:40.486Z,2.53
2023-03-06T09:17:40.540Z,2.56
2023-03-06T09:18:40.462Z,2.97
2023-03-06T09:19:40.421Z,2.69
2023-03-06T09:20:40.407Z,2.33
2023-03-06T09:21:40.401Z,2.18
2023-03-06T09:22:40.398Z,2.20
2023-03-06T09:23:40.413Z,2.12
2023-03-06T09:24:40.404Z,2.22
2023-03-06T09:25:40.366Z,2.53
2023-03-06T09:26:46.206Z,2.43
2023-03-06T09:27:41.335Z,2.45
2023-03-06T09:28:40.324Z,2.33
2023-03-06T09:29:40.340Z,2.43
2023-03-06T09:30:40.409Z,2.30
2023-03-06T09:31:40.298Z,2.11
2023-03-06T09:32:40.298Z,2.53
2023-03-06T09:33:40.271Z,2.44
2023-03-06T09:34:40.259Z,2.32
2023-03-06T09:35:40.353Z,2.19
2023-03-06T09:36:55.585Z,2.12
2023-03-06T09:37:41.260Z,2.14
2023-03-06T09:38:40.217Z,2.26
2023-03-06T09:39:40.209Z,2.33
2023-03-06T09:40:40.218Z,2.36
2023-03-06T09:41:40.212Z,2.58
2023-03-06T09:42:40.172Z,2.65
2023-03-06T09:43:40.181Z,2.80
2023-03-06T09:44:40.149Z,3.02
2023-03-06T09:45:40.176Z,2.89
2023-03-06T09:46:40.126Z,2.74
2023-03-06T09:47:40.141Z,2.69
2023-03-06T09:48:40.106Z,2.55
2023-03-06T09:49:40.114Z,2.73
2023-03-06T09:50:40.082Z,2.68
2023-03-06T09:51:40.071Z,3.02
2023-03-06T09:52:40.064Z,2.89
2023-03-06T09:53:40.076Z,2.99
2023-03-06T09:54:40.036Z,2.90
2023-03-06T09:55:40.052Z,3.16
2023-03-06T09:56:40.047Z,3.17
2023-03-06T09:57:40.021Z,3.26
2023-03-06T09:58:40.000Z,3.25
2023-03-06T09:59:40.029Z,3.31
2023-03-06T10:00:39.990Z,3.16
2023-03-06T10:01:39.994Z,3.26
2023-03-06T10:02:40.118Z,3.41
2023-03-06T10:03:39.942Z,3.15
2023-03-06T10:04:40.088Z,3.56
2023-03-06T10:05:39.977Z,3.49
2023-03-06T10:06:39.913Z,3.74
2023-03-06T10:07:39.900Z,4.24
2023-03-06T10:08:39.883Z,4.68
2023-03-06T10:09:39.874Z,4.74
2023-03-06T10:10:39.862Z,4.75
2023-03-06T10:11:39.885Z,4.91
2023-03-06T10:12:39.887Z,4.35
2023-03-06T10:13:39.831Z,4.14
2023-03-06T10:14:39.818Z,4.17
2023-03-06T10:15:39.856Z,4.26
2023-03-06T10:16:39.809Z,4.34
2023-03-06T10:17:40.436Z,4.36
2023-03-06T10:18:39.789Z,4.91
2023-03-06T10:19:39.769Z,5.14
2023-03-06T10:20:39.759Z,5.06
2023-03-06T10:21:39.758Z,4.65
2023-03-06T10:22:39.740Z,4.74
2023-03-06T10:23:39.775Z,4.75
2023-03-06T10:24:39.716Z,5.12
2023-03-06T10:25:39.709Z,5.14
2023-03-06T10:26:39.806Z,5.23
2023-03-06T10:27:39.686Z,5.51
2023-03-06T10:28:39.694Z,5.17
2023-03-06T10:29:40.172Z,5.11
2023-03-06T10:30:39.650Z,5.58
2023-03-06T10:31:39.641Z,5.01
2023-03-06T10:32:48.216Z,4.94
2023-03-06T10:33:40.620Z,5.35
2023-03-06T10:34:39.624Z,5.59
2023-03-06T10:35:39.631Z,5.73
2023-03-06T10:36:39.582Z,5.32
2023-03-06T10:37:39.581Z,5.35
2023-03-06T10:38:39.564Z,5.11
2023-03-06T10:39:39.559Z,4.86
2023-03-06T10:40:39.561Z,5.06
2023-03-06T10:41:39.564Z,5.12
2023-03-06T10:42:39.521Z,5.14
2023-03-06T10:43:39.514Z,5.24
2023-03-06T10:44:39.522Z,5.55
2023-03-06T10:45:48.893Z,5.24
2023-03-06T10:46:40.586Z,5.17
2023-03-06T10:47:39.483Z,5.11
2023-03-06T10:48:41.681Z,5.15
2023-03-06T10:49:39.445Z,5.41
2023-03-06T10:50:39.445Z,5.42
2023-03-06T10:51:39.436Z,5.74
2023-03-06T10:52:39.411Z,6.14
2023-03-06T10:53:39.417Z,6.63
2023-03-06T10:54:39.389Z,5.93
2023-03-06T10:55:39.386Z,5.93
2023-03-06T10:56:39.380Z,5.60
2023-03-06T10:57:39.359Z,5.44
2023-03-06T10:58:39.344Z,5.51
2023-03-06T10:59:39.372Z,5.26
2023-03-06T11:00:39.339Z,5.47
2023-03-06T11:01:39.413Z,5.69
2023-03-06T11:02:39.321Z,5.52
2023-03-06T11:03:39.303Z,6.05
2023-03-06T11:04:39.340Z,6.03
2023-03-06T11:05:39.310Z,6.45
2023-03-06T11:06:39.257Z,6.35
2023-03-06T11:07:39.251Z,6.25
2023-03-06T11:08:39.235Z,6.05
2023-03-06T11:09:39.238Z,6.33
2023-03-06T11:10:39.218Z,6.33
2023-03-06T11:11:39.230Z,6.08
2023-03-06T11:12:39.202Z,5.69
2023-03-06T11:13:39.187Z,5.69
2023-03-06T11:14:39.169Z,5.83
2023-03-06T11:15:39.168Z,5.90
2023-03-06T11:16:39.166Z,6.40
2023-03-06T11:17:39.159Z,6.17
2023-03-06T11:18:39.127Z,5.70
2023-03-06T11:19:39.125Z,5.49
2023-03-06T11:20:51.047Z,5.09
2023-03-06T11:21:40.096Z,5.44
2023-03-06T11:22:39.079Z,5.85
2023-03-06T11:23:39.093Z,6.01
2023-03-06T11:24:39.077Z,6.19
2023-03-06T11:25:39.054Z,6.21
2023-03-06T11:26:39.036Z,5.85
2023-03-06T11:27:39.024Z,5.74
2023-03-06T11:28:39.016Z,6.20
2023-03-06T11:29:39.155Z,6.39
2023-03-06T11:30:39.008Z,6.20
2023-03-06T11:31:39.000Z,5.73
2023-03-06T11:32:39.033Z,5.67
2023-03-06T11:33:38.954Z,6.01
2023-03-06T11:34:38.947Z,6.11
2023-03-06T11:35:38.975Z,5.98
2023-03-06T11:36:38.959Z,6.32
2023-03-06T11:37:38.911Z,6.27
2023-03-06T11:38:38.911Z,5.99
2023-03-06T11:39:38.888Z,5.66
2023-03-06T11:40:38.879Z,5.88
2023-03-06T11:41:38.892Z,5.65
2023-03-06T11:42:38.874Z,5.75
2023-03-06T11:43:38.842Z,5.85
2023-03-06T11:44:38.836Z,6.30
2023-03-06T11:45:38.822Z,6.16
2023-03-06T11:46:38.920Z,6.63
2023-03-06T11:47:38.852Z,6.82
2023-03-06T11:48:38.866Z,7.05
2023-03-06T11:49:38.778Z,6.57
2023-03-06T11:50:38.770Z,6.48
2023-03-06T11:51:38.772Z,6.94
2023-03-06T11:52:38.747Z,6.68
2023-03-06T11:53:38.754Z,6.20
2023-03-06T11:54:38.730Z,6.11
2023-03-06T11:55:38.713Z,6.25
2023-03-06T11:56:38.707Z,6.11
2023-03-06T11:57:38.702Z,5.96
2023-03-06T11:58:38.688Z,6.05
2023-03-06T11:59:38.702Z,6.46
2023-03-06T12:00:38.675Z,6.78
2023-03-06T12:01:38.667Z,6.65
2023-03-06T12:02:38.639Z,6.30
2023-03-06T12:03:38.632Z,5.83
2023-03-06T12:04:38.657Z,5.80
2023-03-06T12:05:38.684Z,6.13
2023-03-06T12:06:38.612Z,6.36
2023-03-06T12:07:38.582Z,6.40
2023-03-06T12:08:38.576Z,6.42
2023-03-06T12:09:38.571Z,6.79
2023-03-06T12:10:38.608Z,7.05
2023-03-06T12:11:38.566Z,6.48
2023-03-06T12:12:38.549Z,6.20
2023-03-06T12:13:38.530Z,6.57
2023-03-06T12:14:38.529Z,6.81
2023-03-06T12:15:38.494Z,7.14
2023-03-06T12:16:38.665Z,6.93
2023-03-06T12:17:38.513Z,6.69
2023-03-06T12:18:38.479Z,6.72
2023-03-06T12:19:38.449Z,6.45
2023-03-06T12:20:38.467Z,6.43
2023-03-06T12:21:38.447Z,6.36
2023-03-06T12:22:38.434Z,6.33
2023-03-06T12:23:38.449Z,6.39
2023-03-06T12:24:38.400Z,6.68
2023-03-06T12:25:38.383Z,6.78
2023-03-06T12:26:38.379Z,6.83
2023-03-06T12:27:38.365Z,7.14
2023-03-06T12:28:38.364Z,6.96
2023-03-06T12:29:38.361Z,7.19
2023-03-06T12:30:38.332Z,7.14
2023-03-06T12:31:38.351Z,6.79
2023-03-06T12:32:38.410Z,6.93
2023-03-06T12:33:38.319Z,6.68
2023-03-06T12:34:38.287Z,7.11
2023-03-06T12:35:38.378Z,6.81
2023-03-06T12:36:38.329Z,6.90
2023-03-06T12:37:38.268Z,7.41
2023-03-06T12:38:38.259Z,7.05
2023-03-06T12:39:38.229Z,6.45
2023-03-06T12:40:38.222Z,6.81
2023-03-06T12:41:38.249Z,6.89
2023-03-06T12:42:38.205Z,7.41
2023-03-06T12:43:40.042Z,7.67
2023-03-06T12:44:38.182Z,7.67
2023-03-06T12:45:38.390Z,7.62
2023-03-06T12:46:38.157Z,7.82
2023-03-06T12:47:38.170Z,7.79
2023-03-06T12:48:38.134Z,8.02
2023-03-06T12:49:38.131Z,7.36
2023-03-06T12:50:38.136Z,6.73
2023-03-06T12:51:38.101Z,7.37
2023-03-06T12:52:38.120Z,7.52
2023-03-06T12:53:38.120Z,6.90
2023-03-06T12:54:38.085Z,7.33
2023-03-06T12:55:38.073Z,7.29
2023-03-06T12:56:38.051Z,7.62
2023-03-06T12:57:38.049Z,7.70
2023-03-06T12:58:38.043Z,7.91
2023-03-06T12:59:38.040Z,8.00
2023-03-06T13:00:38.009Z,8.07
2023-03-06T13:01:38.090Z,7.91
2023-03-06T13:02:38.065Z,7.99